Burlington, KS (66839)

4:37 AM CDT on April 25, 2015 (GMT -0500)
Gridley Fire Station | | Change Station
CLOSE
Current Station
Personal Weather Station
Location: Gridley, KS
Elevation: 1161 ft
Nearby Weather Stations

Elev 1161 ft 38.10 °N, 95.89 °W | Updated 11 minutes ago

Overcast
Overcast
56.7 °F
Feels Like 56.7 °F
N
2.0
Wind Variable Wind from East
Gusts 9.0 mph

Today
High -- | Low -- °F
--% Chance of Precip.
Yesterday
High -- | Low -- °F
Precip. -- in
6:34 AM 8:08 PM
Waxing Crescent, 44% visible
Pressure 29.40 in
Visibility 10.0 miles
Clouds Few 2100 ft
Mostly Cloudy 9000 ft
Dew Point 55 °F
Humidity 95%
Rainfall 0.00 in
Snow Depth Not available.
UV 0 out of 12
Pollen 10.30 out of 12
Air Quality Not available.
Flu Activity Sporadic
SPECI KEMP 250927Z AUTO 15007KT 10SM FEW021 BKN090 13/12 A2940 RMK AO2 LTG DSNT E-S RAE24 P0001 T01280117

More Conditions Fewer Conditions

Pressure 29.40 in
Visibility 10.0 miles
Clouds Few 2100 ft
Mostly Cloudy 9000 ft
Dew Point 55 °F
Humidity 95%
Rainfall 0.00 in
Snow Depth Not available.
UV 0 out of 12
Pollen 10.30 out of 12
Air Quality Not available.
Flu Activity Sporadic
SPECI KEMP 250927Z AUTO 15007KT 10SM FEW021 BKN090 13/12 A2940 RMK AO2 LTG DSNT E-S RAE24 P0001 T01280117

More Conditions Fewer Conditions

10-Day Weather Forecast

Almanac

Astronomy

Apr. 25, 2015 Rise Set
Actual Time
Civil Twilight
Nautical Twilight
Astronomical Twilight
Moon
Length of Visible Light
Length of Day
Tomorrow will be .
, % of the Moon is Illuminated

Today's Extremes

State Highs State Lows

Community

WunderPhotos

Upload Photos

1,816,630 photos uploaded!

WunderBlogs® & News

Nearby

Air Quality

  Air Quality AQ Index Pollutant
Not available.

Snow Depth

Station Depth Elevation

Earthquake Activity

City Distance Mag. Time & Date
Minimum magnitude displayed is 2.5.

Coastal Water Temperatures

Place Temperature

Stations

Nearby Weather Stations

Station Location Temp. Windchill Dew Point Humidity Wind Precip. Elev Updated Type